FIN46J ENTC-EFHK
Flight info
| Callsign | FIN46J |
|---|---|
| Flight time | 1h 29m |
| Altitude | 37000 |
| Route | MOKA1A MOKAX P853 RIXEM DCT IBOSU Y86 LUSEP LUSE4W |
| Aircraft | A321/M-SDE3FGHIRWY/LB1 |
Departure
| Time | 2026-04-26 11:59 |
|---|---|
| Airport | Tromsø Airport (ENTC) |
Arrival
| Time | 2026-04-26 13:29 |
|---|---|
| Airport | Helsinki Vantaa Airport (EFHK) |
| Time | Latitude | Longitude | Altitude | Speed | Heading |
|---|---|---|---|---|---|
| 2026-04-26 11:37 | 69.68011 | 18.90956 | 38 ft | 0 kts | 283° |
| 2026-04-26 11:48 | 69.68010 | 18.90965 | 38 ft | 3 kts | 283° |
| 2026-04-26 11:49 | 69.68006 | 18.91017 | 37 ft | 3 kts | 283° |
| 2026-04-26 11:49 | 69.68004 | 18.91037 | 36 ft | 0 kts | 283° |
| 2026-04-26 11:51 | 69.68003 | 18.91050 | 35 ft | 3 kts | 283° |
| 2026-04-26 11:52 | 69.67999 | 18.91108 | 31 ft | 3 kts | 283° |
| 2026-04-26 11:52 | 69.67996 | 18.91144 | 31 ft | 3 kts | 283° |
| 2026-04-26 11:52 | 69.67990 | 18.91214 | 34 ft | 3 kts | 283° |
| 2026-04-26 11:52 | 69.67988 | 18.91242 | 34 ft | 0 kts | 283° |
| 2026-04-26 11:55 | 69.67988 | 18.91238 | 35 ft | 1 kts | 276° |
| 2026-04-26 11:55 | 69.67980 | 18.91217 | 34 ft | 2 kts | 217° |
| 2026-04-26 11:55 | 69.67959 | 18.91224 | 35 ft | 3 kts | 168° |
| 2026-04-26 11:56 | 69.67922 | 18.91221 | 36 ft | 7 kts | 189° |
| 2026-04-26 11:56 | 69.67863 | 18.91188 | 38 ft | 10 kts | 191° |
| 2026-04-26 11:56 | 69.67785 | 18.91136 | 39 ft | 13 kts | 193° |
| 2026-04-26 11:56 | 69.67692 | 18.91074 | 39 ft | 11 kts | 192° |
| 2026-04-26 11:57 | 69.67640 | 18.91115 | 41 ft | 8 kts | 126° |
| 2026-04-26 11:57 | 69.67621 | 18.91300 | 39 ft | 5 kts | 105° |
| 2026-04-26 11:57 | 69.67598 | 18.91363 | 41 ft | 5 kts | 154° |
| 2026-04-26 11:57 | 69.67538 | 18.91355 | 42 ft | 13 kts | 192° |
| 2026-04-26 11:58 | 69.67413 | 18.91274 | 39 ft | 21 kts | 192° |
| 2026-04-26 11:58 | 69.67289 | 18.91146 | 35 ft | 12 kts | 210° |
| 2026-04-26 11:58 | 69.67269 | 18.91190 | 33 ft | 5 kts | 48° |
| 2026-04-26 11:58 | 69.67298 | 18.91205 | 32 ft | 0 kts | 11° |
| 2026-04-26 11:59 | 69.67433 | 18.91287 | 40 ft | 59 kts | 12° |
| 2026-04-26 11:59 | 69.68134 | 18.91752 | 31 ft | 144 kts | 13° |
| 2026-04-26 11:59 | 69.69241 | 18.92514 | 644 ft | 169 kts | 11° |
| 2026-04-26 12:00 | 69.70388 | 18.93278 | 1790 ft | 170 kts | 11° |
| 2026-04-26 12:00 | 69.71545 | 18.94049 | 2414 ft | 176 kts | 10° |
| 2026-04-26 12:00 | 69.72792 | 18.94873 | 2665 ft | 198 kts | 10° |
| 2026-04-26 12:00 | 69.74214 | 18.95810 | 2972 ft | 219 kts | 11° |
| 2026-04-26 12:01 | 69.75726 | 18.96816 | 3788 ft | 224 kts | 11° |
| 2026-04-26 12:01 | 69.77221 | 18.98111 | 4724 ft | 229 kts | 27° |
| 2026-04-26 12:01 | 69.78349 | 19.01510 | 5437 ft | 250 kts | 57° |
| 2026-04-26 12:01 | 69.78821 | 19.06531 | 6091 ft | 271 kts | 89° |
| 2026-04-26 12:02 | 69.78280 | 19.11818 | 6866 ft | 284 kts | 123° |
| 2026-04-26 12:02 | 69.77377 | 19.14558 | 7414 ft | 288 kts | 146° |
| 2026-04-26 12:02 | 69.74986 | 19.18098 | 8590 ft | 291 kts | 157° |
| 2026-04-26 12:02 | 69.73116 | 19.20401 | 9491 ft | 294 kts | 159° |
| 2026-04-26 12:03 | 69.71234 | 19.22625 | 10293 ft | 301 kts | 159° |
| 2026-04-26 12:03 | 69.69220 | 19.24998 | 10596 ft | 325 kts | 159° |
| 2026-04-26 12:03 | 69.67059 | 19.27578 | 10861 ft | 347 kts | 158° |
| 2026-04-26 12:03 | 69.64801 | 19.30331 | 11420 ft | 357 kts | 158° |
| 2026-04-26 12:04 | 69.62507 | 19.33168 | 12169 ft | 361 kts | 157° |
| 2026-04-26 12:04 | 69.60183 | 19.36057 | 12914 ft | 366 kts | 157° |
| 2026-04-26 12:04 | 69.57833 | 19.38977 | 13703 ft | 370 kts | 157° |
| 2026-04-26 12:04 | 69.55455 | 19.41924 | 14372 ft | 375 kts | 157° |
| 2026-04-26 12:05 | 69.53052 | 19.44889 | 15070 ft | 378 kts | 157° |
| 2026-04-26 12:05 | 69.50660 | 19.47831 | 15765 ft | 381 kts | 157° |
| 2026-04-26 12:05 | 69.48211 | 19.50839 | 16469 ft | 385 kts | 157° |
| 2026-04-26 12:05 | 69.45742 | 19.53863 | 17146 ft | 388 kts | 157° |
| 2026-04-26 12:06 | 69.43249 | 19.56909 | 17822 ft | 392 kts | 157° |
| 2026-04-26 12:06 | 69.40725 | 19.59981 | 18480 ft | 396 kts | 157° |
| 2026-04-26 12:06 | 69.38181 | 19.63066 | 19088 ft | 400 kts | 157° |
| 2026-04-26 12:06 | 69.35615 | 19.66171 | 19692 ft | 403 kts | 157° |
| 2026-04-26 12:07 | 69.33026 | 19.69295 | 20312 ft | 406 kts | 157° |
| 2026-04-26 12:07 | 69.30408 | 19.72441 | 20932 ft | 410 kts | 157° |
| 2026-04-26 12:07 | 69.27807 | 19.75557 | 21525 ft | 413 kts | 157° |
| 2026-04-26 12:07 | 69.25148 | 19.78736 | 22083 ft | 417 kts | 157° |
| 2026-04-26 12:08 | 69.22466 | 19.81930 | 22647 ft | 420 kts | 157° |
| 2026-04-26 12:08 | 69.19760 | 19.85137 | 23193 ft | 424 kts | 157° |
| 2026-04-26 12:08 | 69.17027 | 19.88374 | 23686 ft | 427 kts | 157° |
| 2026-04-26 12:08 | 69.14278 | 19.91632 | 24097 ft | 431 kts | 157° |
| 2026-04-26 12:09 | 69.11503 | 19.94912 | 24497 ft | 435 kts | 157° |
| 2026-04-26 12:09 | 69.08703 | 19.98213 | 24893 ft | 439 kts | 157° |
| 2026-04-26 12:09 | 69.05878 | 20.01533 | 25291 ft | 443 kts | 157° |
| 2026-04-26 12:09 | 69.03021 | 20.04875 | 25671 ft | 447 kts | 157° |
| 2026-04-26 12:10 | 69.00142 | 20.08229 | 26045 ft | 451 kts | 158° |
| 2026-04-26 12:10 | 68.97273 | 20.11562 | 26400 ft | 455 kts | 158° |
| 2026-04-26 12:10 | 68.94340 | 20.14964 | 26770 ft | 459 kts | 158° |
| 2026-04-26 12:10 | 68.91377 | 20.18397 | 27120 ft | 463 kts | 158° |
| 2026-04-26 12:11 | 68.88393 | 20.21838 | 27495 ft | 466 kts | 158° |
| 2026-04-26 12:11 | 68.85386 | 20.25289 | 27849 ft | 470 kts | 158° |
| 2026-04-26 12:11 | 68.82355 | 20.28747 | 28202 ft | 473 kts | 158° |
| 2026-04-26 12:11 | 68.79293 | 20.32200 | 28536 ft | 476 kts | 159° |
| 2026-04-26 12:12 | 68.76183 | 20.35457 | 28875 ft | 480 kts | 160° |
| 2026-04-26 12:12 | 68.73063 | 20.38454 | 29216 ft | 483 kts | 162° |
| 2026-04-26 12:12 | 68.69859 | 20.41337 | 29548 ft | 486 kts | 163° |
| 2026-04-26 12:12 | 68.67676 | 20.43243 | 29778 ft | 488 kts | 163° |
| 2026-04-26 12:13 | 68.63387 | 20.46969 | 30312 ft | 488 kts | 163° |
| 2026-04-26 12:13 | 68.60145 | 20.49817 | 30638 ft | 490 kts | 163° |
| 2026-04-26 12:13 | 68.56901 | 20.52716 | 30934 ft | 492 kts | 162° |
| 2026-04-26 12:13 | 68.53653 | 20.55655 | 31270 ft | 492 kts | 162° |
| 2026-04-26 12:14 | 68.50400 | 20.58614 | 31632 ft | 492 kts | 162° |
| 2026-04-26 12:14 | 68.47195 | 20.61524 | 31984 ft | 492 kts | 162° |
| 2026-04-26 12:14 | 68.43946 | 20.64458 | 32348 ft | 492 kts | 162° |
| 2026-04-26 12:14 | 68.40695 | 20.67370 | 32706 ft | 492 kts | 162° |
| 2026-04-26 12:15 | 68.37438 | 20.70268 | 33083 ft | 492 kts | 162° |
| 2026-04-26 12:15 | 68.34194 | 20.73137 | 33465 ft | 491 kts | 162° |
| 2026-04-26 12:15 | 68.30945 | 20.76003 | 33828 ft | 491 kts | 162° |
| 2026-04-26 12:15 | 68.27702 | 20.78863 | 34117 ft | 490 kts | 162° |
| 2026-04-26 12:16 | 68.24461 | 20.81720 | 34395 ft | 490 kts | 162° |
| 2026-04-26 12:16 | 68.21221 | 20.84574 | 34654 ft | 490 kts | 162° |
| 2026-04-26 12:16 | 68.17972 | 20.87426 | 34901 ft | 491 kts | 162° |
| 2026-04-26 12:16 | 68.14766 | 20.90220 | 35158 ft | 491 kts | 162° |
| 2026-04-26 12:17 | 68.11516 | 20.93039 | 35433 ft | 491 kts | 162° |
| 2026-04-26 12:17 | 68.08266 | 20.95842 | 35717 ft | 491 kts | 162° |
| 2026-04-26 12:17 | 68.05013 | 20.98639 | 35978 ft | 490 kts | 162° |
| 2026-04-26 12:17 | 68.01767 | 21.01429 | 36236 ft | 490 kts | 162° |
| 2026-04-26 12:18 | 67.98523 | 21.04216 | 36487 ft | 490 kts | 162° |
| 2026-04-26 12:18 | 67.95280 | 21.06996 | 36696 ft | 490 kts | 162° |
| 2026-04-26 12:18 | 67.92037 | 21.09771 | 36857 ft | 490 kts | 162° |
| 2026-04-26 12:19 | 67.85584 | 21.15259 | 36897 ft | 490 kts | 162° |
| 2026-04-26 12:19 | 67.79101 | 21.20728 | 36887 ft | 489 kts | 163° |
| 2026-04-26 12:20 | 67.72608 | 21.26179 | 36880 ft | 490 kts | 163° |
| 2026-04-26 12:20 | 67.66111 | 21.31603 | 36876 ft | 490 kts | 163° |
| 2026-04-26 12:21 | 67.59658 | 21.36968 | 36882 ft | 490 kts | 163° |
| 2026-04-26 12:21 | 67.53151 | 21.42340 | 36882 ft | 491 kts | 163° |
| 2026-04-26 12:22 | 67.46632 | 21.47704 | 36883 ft | 491 kts | 163° |
| 2026-04-26 12:22 | 67.40111 | 21.53031 | 36875 ft | 492 kts | 163° |
| 2026-04-26 12:23 | 67.33616 | 21.58290 | 36895 ft | 492 kts | 163° |
| 2026-04-26 12:23 | 67.27079 | 21.63567 | 36896 ft | 492 kts | 163° |
| 2026-04-26 12:24 | 67.20538 | 21.68825 | 36899 ft | 492 kts | 163° |
| 2026-04-26 12:24 | 67.14000 | 21.74034 | 36898 ft | 492 kts | 163° |
| 2026-04-26 12:25 | 67.04234 | 21.81768 | 36900 ft | 492 kts | 163° |
| 2026-04-26 12:25 | 66.97697 | 21.86925 | 36883 ft | 492 kts | 163° |
| 2026-04-26 12:26 | 66.91146 | 21.92058 | 36888 ft | 492 kts | 163° |
| 2026-04-26 12:26 | 66.84592 | 21.97136 | 36908 ft | 493 kts | 163° |
| 2026-04-26 12:27 | 66.78075 | 22.02174 | 36909 ft | 492 kts | 163° |
| 2026-04-26 12:27 | 66.71526 | 22.07226 | 36906 ft | 492 kts | 163° |
| 2026-04-26 12:28 | 66.64981 | 22.12244 | 36905 ft | 492 kts | 163° |
| 2026-04-26 12:28 | 66.58427 | 22.17213 | 36886 ft | 492 kts | 163° |
| 2026-04-26 12:29 | 66.51915 | 22.22131 | 36894 ft | 493 kts | 163° |
| 2026-04-26 12:30 | 66.42063 | 22.29549 | 36899 ft | 493 kts | 163° |
| 2026-04-26 12:30 | 66.35490 | 22.34458 | 36900 ft | 493 kts | 163° |
| 2026-04-26 12:31 | 66.25640 | 22.41766 | 36910 ft | 492 kts | 163° |
| 2026-04-26 12:31 | 66.19129 | 22.46552 | 36906 ft | 491 kts | 164° |
| 2026-04-26 12:32 | 66.12575 | 22.51329 | 36902 ft | 491 kts | 164° |
| 2026-04-26 12:33 | 66.02755 | 22.58471 | 36909 ft | 491 kts | 164° |
| 2026-04-26 12:33 | 65.96200 | 22.63214 | 36906 ft | 491 kts | 164° |
| 2026-04-26 12:34 | 65.89690 | 22.67887 | 36908 ft | 491 kts | 164° |
| 2026-04-26 12:34 | 65.83130 | 22.72572 | 36908 ft | 491 kts | 164° |
| 2026-04-26 12:35 | 65.76575 | 22.77235 | 36908 ft | 491 kts | 164° |
| 2026-04-26 12:35 | 65.70016 | 22.81882 | 36906 ft | 491 kts | 164° |
| 2026-04-26 12:36 | 65.63486 | 22.86487 | 36898 ft | 492 kts | 164° |
| 2026-04-26 12:36 | 65.56905 | 22.91098 | 36897 ft | 493 kts | 164° |
| 2026-04-26 12:37 | 65.50317 | 22.95674 | 36900 ft | 493 kts | 164° |
| 2026-04-26 12:37 | 65.43725 | 23.00248 | 36882 ft | 493 kts | 164° |
| 2026-04-26 12:38 | 65.37174 | 23.04778 | 36888 ft | 494 kts | 164° |
| 2026-04-26 12:38 | 65.30566 | 23.09308 | 36912 ft | 494 kts | 164° |
| 2026-04-26 12:39 | 65.23960 | 23.13789 | 36918 ft | 494 kts | 165° |
| 2026-04-26 12:39 | 65.17355 | 23.18268 | 36906 ft | 493 kts | 164° |
| 2026-04-26 12:40 | 65.10796 | 23.22707 | 36901 ft | 493 kts | 165° |
| 2026-04-26 12:40 | 65.04198 | 23.27141 | 36891 ft | 493 kts | 165° |
| 2026-04-26 12:41 | 64.97594 | 23.31539 | 36884 ft | 493 kts | 165° |
| 2026-04-26 12:41 | 64.90979 | 23.35921 | 36896 ft | 494 kts | 165° |
| 2026-04-26 12:42 | 64.84367 | 23.40291 | 36902 ft | 494 kts | 165° |
| 2026-04-26 12:42 | 64.77796 | 23.44611 | 36914 ft | 494 kts | 165° |
| 2026-04-26 12:43 | 64.71181 | 23.48946 | 36907 ft | 493 kts | 165° |
| 2026-04-26 12:43 | 64.64567 | 23.53262 | 36890 ft | 494 kts | 165° |
| 2026-04-26 12:44 | 64.57950 | 23.57554 | 36895 ft | 494 kts | 165° |
| 2026-04-26 12:44 | 64.51326 | 23.61815 | 36899 ft | 494 kts | 165° |
| 2026-04-26 12:45 | 64.44736 | 23.66026 | 36901 ft | 494 kts | 165° |
| 2026-04-26 12:45 | 64.38110 | 23.70272 | 36898 ft | 494 kts | 165° |
| 2026-04-26 12:46 | 64.31477 | 23.74490 | 36879 ft | 494 kts | 165° |
| 2026-04-26 12:46 | 64.24847 | 23.78679 | 36884 ft | 494 kts | 165° |
| 2026-04-26 12:47 | 64.18254 | 23.82825 | 36879 ft | 495 kts | 165° |
| 2026-04-26 12:47 | 64.11604 | 23.86972 | 36888 ft | 495 kts | 165° |
| 2026-04-26 12:48 | 64.04946 | 23.91107 | 36893 ft | 496 kts | 165° |
| 2026-04-26 12:48 | 63.98288 | 23.95228 | 36899 ft | 496 kts | 165° |
| 2026-04-26 12:49 | 63.91670 | 23.99316 | 36881 ft | 496 kts | 165° |
| 2026-04-26 12:49 | 63.84995 | 24.03405 | 36902 ft | 497 kts | 165° |
| 2026-04-26 12:50 | 63.78323 | 24.07460 | 36898 ft | 496 kts | 165° |
| 2026-04-26 12:50 | 63.71653 | 24.11523 | 36901 ft | 496 kts | 165° |
| 2026-04-26 12:51 | 63.66119 | 24.14886 | 36896 ft | 496 kts | 165° |
| 2026-04-26 12:51 | 63.58373 | 24.19535 | 36884 ft | 495 kts | 165° |
| 2026-04-26 12:52 | 63.51712 | 24.23507 | 36866 ft | 496 kts | 166° |
| 2026-04-26 12:52 | 63.45045 | 24.27484 | 36862 ft | 496 kts | 165° |
| 2026-04-26 12:53 | 63.39496 | 24.30800 | 36869 ft | 497 kts | 166° |
| 2026-04-26 12:53 | 63.31733 | 24.35374 | 36889 ft | 497 kts | 166° |
| 2026-04-26 12:54 | 63.25046 | 24.39290 | 36872 ft | 497 kts | 166° |
| 2026-04-26 12:54 | 63.19495 | 24.42544 | 36852 ft | 497 kts | 166° |
| 2026-04-26 12:55 | 63.12810 | 24.46428 | 36853 ft | 497 kts | 166° |
| 2026-04-26 12:55 | 63.05025 | 24.50930 | 36853 ft | 498 kts | 166° |
| 2026-04-26 12:56 | 62.98329 | 24.54813 | 36852 ft | 498 kts | 166° |
| 2026-04-26 12:56 | 62.92753 | 24.58012 | 36858 ft | 498 kts | 166° |
| 2026-04-26 12:57 | 62.86046 | 24.61817 | 36871 ft | 498 kts | 166° |
| 2026-04-26 12:57 | 62.79345 | 24.65618 | 36850 ft | 497 kts | 166° |
| 2026-04-26 12:58 | 62.69295 | 24.71304 | 36850 ft | 497 kts | 166° |
| 2026-04-26 12:58 | 62.62641 | 24.75052 | 36839 ft | 497 kts | 166° |
| 2026-04-26 12:59 | 62.55933 | 24.78794 | 36839 ft | 497 kts | 166° |
| 2026-04-26 12:59 | 62.49230 | 24.82516 | 36843 ft | 497 kts | 166° |
| 2026-04-26 13:00 | 62.42566 | 24.86198 | 36823 ft | 497 kts | 166° |
| 2026-04-26 13:00 | 62.35861 | 24.89890 | 36843 ft | 497 kts | 166° |
| 2026-04-26 13:01 | 62.29155 | 24.93587 | 36816 ft | 496 kts | 166° |
| 2026-04-26 13:01 | 62.25830 | 24.95413 | 36560 ft | 491 kts | 166° |
| 2026-04-26 13:01 | 62.22525 | 24.97220 | 36320 ft | 490 kts | 166° |
| 2026-04-26 13:02 | 62.19223 | 24.99013 | 35884 ft | 489 kts | 166° |
| 2026-04-26 13:02 | 62.15972 | 25.00773 | 35356 ft | 488 kts | 166° |
| 2026-04-26 13:02 | 62.12680 | 25.02551 | 34834 ft | 488 kts | 166° |
| 2026-04-26 13:02 | 62.09390 | 25.04328 | 34338 ft | 488 kts | 166° |
| 2026-04-26 13:03 | 62.06090 | 25.06107 | 33898 ft | 491 kts | 166° |
| 2026-04-26 13:03 | 62.02773 | 25.07894 | 33415 ft | 492 kts | 166° |
| 2026-04-26 13:03 | 61.99451 | 25.09684 | 32912 ft | 493 kts | 166° |
| 2026-04-26 13:03 | 61.96123 | 25.11478 | 32418 ft | 493 kts | 166° |
| 2026-04-26 13:04 | 61.92801 | 25.13259 | 31934 ft | 491 kts | 166° |
| 2026-04-26 13:04 | 61.89500 | 25.15021 | 31473 ft | 487 kts | 166° |
| 2026-04-26 13:04 | 61.86228 | 25.16761 | 31006 ft | 483 kts | 166° |
| 2026-04-26 13:04 | 61.82984 | 25.18482 | 30548 ft | 478 kts | 166° |
| 2026-04-26 13:05 | 61.79820 | 25.20154 | 30098 ft | 473 kts | 167° |
| 2026-04-26 13:05 | 61.76649 | 25.21827 | 29606 ft | 468 kts | 167° |
| 2026-04-26 13:05 | 61.73505 | 25.23486 | 29045 ft | 463 kts | 167° |
| 2026-04-26 13:05 | 61.70400 | 25.25123 | 28436 ft | 459 kts | 167° |
| 2026-04-26 13:06 | 61.67313 | 25.26744 | 27884 ft | 455 kts | 167° |
| 2026-04-26 13:06 | 61.64257 | 25.28336 | 27342 ft | 450 kts | 168° |
| 2026-04-26 13:06 | 61.61193 | 25.29319 | 26800 ft | 441 kts | 178° |
| 2026-04-26 13:06 | 61.58157 | 25.29362 | 26281 ft | 432 kts | 184° |
| 2026-04-26 13:07 | 61.55199 | 25.29200 | 25791 ft | 431 kts | 184° |
| 2026-04-26 13:07 | 61.52209 | 25.29048 | 25314 ft | 429 kts | 183° |
| 2026-04-26 13:07 | 61.49247 | 25.28908 | 24831 ft | 422 kts | 182° |
| 2026-04-26 13:07 | 61.46345 | 25.28780 | 24357 ft | 415 kts | 183° |
| 2026-04-26 13:08 | 61.43474 | 25.28653 | 23903 ft | 409 kts | 182° |
| 2026-04-26 13:08 | 61.40660 | 25.28530 | 23450 ft | 401 kts | 182° |
| 2026-04-26 13:08 | 61.37890 | 25.28406 | 22915 ft | 397 kts | 182° |
| 2026-04-26 13:08 | 61.35128 | 25.28280 | 22389 ft | 397 kts | 183° |
| 2026-04-26 13:09 | 61.32370 | 25.28153 | 21884 ft | 393 kts | 183° |
| 2026-04-26 13:09 | 61.29717 | 25.28031 | 21385 ft | 381 kts | 183° |
| 2026-04-26 13:09 | 61.27091 | 25.27910 | 20907 ft | 375 kts | 183° |
| 2026-04-26 13:09 | 61.24497 | 25.27790 | 20450 ft | 371 kts | 184° |
| 2026-04-26 13:10 | 61.21918 | 25.27666 | 19998 ft | 370 kts | 183° |
| 2026-04-26 13:10 | 61.19361 | 25.27544 | 19540 ft | 366 kts | 182° |
| 2026-04-26 13:10 | 61.16827 | 25.27432 | 19126 ft | 363 kts | 184° |
| 2026-04-26 13:10 | 61.14312 | 25.27323 | 18720 ft | 360 kts | 183° |
| 2026-04-26 13:11 | 61.11810 | 25.27216 | 18317 ft | 358 kts | 182° |
| 2026-04-26 13:11 | 61.09340 | 25.27114 | 17922 ft | 352 kts | 182° |
| 2026-04-26 13:11 | 61.06918 | 25.27012 | 17499 ft | 342 kts | 182° |
| 2026-04-26 13:11 | 61.04579 | 25.26909 | 17061 ft | 332 kts | 183° |
| 2026-04-26 13:12 | 61.02310 | 25.26803 | 16649 ft | 329 kts | 183° |
| 2026-04-26 13:12 | 61.00031 | 25.26695 | 16235 ft | 326 kts | 182° |
| 2026-04-26 13:12 | 60.97770 | 25.26588 | 15814 ft | 324 kts | 182° |
| 2026-04-26 13:12 | 60.95521 | 25.26481 | 15416 ft | 323 kts | 183° |
| 2026-04-26 13:13 | 60.93268 | 25.26462 | 15045 ft | 324 kts | 181° |
| 2026-04-26 13:13 | 60.91016 | 25.26576 | 14661 ft | 324 kts | 179° |
| 2026-04-26 13:13 | 60.88774 | 25.26759 | 14280 ft | 322 kts | 178° |
| 2026-04-26 13:13 | 60.86539 | 25.26960 | 13893 ft | 322 kts | 178° |
| 2026-04-26 13:14 | 60.84293 | 25.27147 | 13535 ft | 323 kts | 178° |
| 2026-04-26 13:14 | 60.82089 | 25.27098 | 13158 ft | 319 kts | 187° |
| 2026-04-26 13:14 | 60.79895 | 25.26563 | 12791 ft | 318 kts | 189° |
| 2026-04-26 13:14 | 60.77683 | 25.26013 | 12430 ft | 320 kts | 188° |
| 2026-04-26 13:15 | 60.75483 | 25.25466 | 12070 ft | 317 kts | 188° |
| 2026-04-26 13:15 | 60.73301 | 25.24927 | 11711 ft | 314 kts | 188° |
| 2026-04-26 13:15 | 60.71144 | 25.24397 | 11390 ft | 311 kts | 188° |
| 2026-04-26 13:15 | 60.68982 | 25.23865 | 11072 ft | 314 kts | 189° |
| 2026-04-26 13:16 | 60.66808 | 25.23330 | 10755 ft | 314 kts | 189° |
| 2026-04-26 13:16 | 60.64655 | 25.22805 | 10464 ft | 311 kts | 189° |
| 2026-04-26 13:16 | 60.62512 | 25.22286 | 10178 ft | 310 kts | 189° |
| 2026-04-26 13:16 | 60.60356 | 25.21759 | 9922 ft | 313 kts | 189° |
| 2026-04-26 13:17 | 60.56057 | 25.20710 | 9753 ft | 313 kts | 188° |
| 2026-04-26 13:17 | 60.53892 | 25.20178 | 9516 ft | 315 kts | 188° |
| 2026-04-26 13:18 | 60.49540 | 25.19106 | 8635 ft | 314 kts | 188° |
| 2026-04-26 13:18 | 60.47378 | 25.18579 | 8238 ft | 312 kts | 188° |
| 2026-04-26 13:18 | 60.43096 | 25.17555 | 7503 ft | 307 kts | 189° |
| 2026-04-26 13:19 | 60.40983 | 25.17045 | 7158 ft | 304 kts | 189° |
| 2026-04-26 13:19 | 60.38890 | 25.16537 | 6815 ft | 302 kts | 189° |
| 2026-04-26 13:19 | 60.36813 | 25.16034 | 6475 ft | 300 kts | 189° |
| 2026-04-26 13:19 | 60.34797 | 25.15626 | 6139 ft | 292 kts | 183° |
| 2026-04-26 13:20 | 60.32791 | 25.16021 | 5788 ft | 289 kts | 167° |
| 2026-04-26 13:20 | 60.30915 | 25.17369 | 5432 ft | 283 kts | 151° |
| 2026-04-26 13:20 | 60.29190 | 25.19146 | 5087 ft | 275 kts | 151° |
| 2026-04-26 13:20 | 60.27502 | 25.20865 | 4760 ft | 271 kts | 151° |
| 2026-04-26 13:21 | 60.25826 | 25.22565 | 4438 ft | 269 kts | 151° |
| 2026-04-26 13:21 | 60.24721 | 25.23686 | 4218 ft | 268 kts | 151° |
| 2026-04-26 13:21 | 60.22506 | 25.25925 | 3826 ft | 262 kts | 151° |
| 2026-04-26 13:21 | 60.20892 | 25.27544 | 3493 ft | 257 kts | 152° |
| 2026-04-26 13:22 | 60.19297 | 25.29129 | 3150 ft | 254 kts | 153° |
| 2026-04-26 13:22 | 60.17657 | 25.29990 | 2999 ft | 244 kts | 179° |
| 2026-04-26 13:22 | 60.16023 | 25.29475 | 2894 ft | 234 kts | 207° |
| 2026-04-26 13:22 | 60.14699 | 25.27772 | 2812 ft | 221 kts | 233° |
| 2026-04-26 13:23 | 60.13861 | 25.25352 | 2712 ft | 202 kts | 257° |
| 2026-04-26 13:23 | 60.13538 | 25.22729 | 2657 ft | 187 kts | 277° |
| 2026-04-26 13:23 | 60.13652 | 25.20218 | 2603 ft | 176 kts | 294° |
| 2026-04-26 13:23 | 60.14119 | 25.18018 | 2548 ft | 169 kts | 309° |
| 2026-04-26 13:24 | 60.14848 | 25.16223 | 2506 ft | 166 kts | 318° |
| 2026-04-26 13:24 | 60.15634 | 25.14558 | 2434 ft | 160 kts | 323° |
| 2026-04-26 13:24 | 60.16521 | 25.13295 | 2358 ft | 154 kts | 334° |
| 2026-04-26 13:24 | 60.17458 | 25.12345 | 2289 ft | 152 kts | 336° |
| 2026-04-26 13:25 | 60.18401 | 25.11387 | 2288 ft | 152 kts | 335° |
| 2026-04-26 13:25 | 60.19343 | 25.10425 | 2286 ft | 152 kts | 335° |
| 2026-04-26 13:25 | 60.20280 | 25.09467 | 2272 ft | 152 kts | 335° |
| 2026-04-26 13:25 | 60.21221 | 25.08509 | 2200 ft | 151 kts | 336° |
| 2026-04-26 13:26 | 60.22153 | 25.07564 | 2017 ft | 147 kts | 336° |
| 2026-04-26 13:26 | 60.23042 | 25.06660 | 1813 ft | 140 kts | 335° |
| 2026-04-26 13:26 | 60.23883 | 25.05802 | 1634 ft | 131 kts | 335° |
| 2026-04-26 13:26 | 60.24682 | 25.04986 | 1485 ft | 128 kts | 336° |
| 2026-04-26 13:27 | 60.25459 | 25.04191 | 1313 ft | 126 kts | 336° |
| 2026-04-26 13:27 | 60.26241 | 25.03396 | 1132 ft | 126 kts | 336° |
| 2026-04-26 13:27 | 60.27024 | 25.02596 | 960 ft | 126 kts | 335° |
| 2026-04-26 13:27 | 60.27803 | 25.01801 | 796 ft | 125 kts | 334° |
| 2026-04-26 13:28 | 60.28582 | 25.01006 | 650 ft | 124 kts | 334° |
| 2026-04-26 13:28 | 60.29360 | 25.00207 | 504 ft | 128 kts | 333° |
| 2026-04-26 13:28 | 60.30144 | 24.99405 | 325 ft | 124 kts | 333° |
| 2026-04-26 13:28 | 60.30913 | 24.98619 | 181 ft | 123 kts | 333° |
| 2026-04-26 13:29 | 60.31563 | 24.97952 | 156 ft | 79 kts | 333° |
| 2026-04-26 13:29 | 60.31858 | 24.97650 | 152 ft | 65 kts | 333° |
| 2026-04-26 13:29 | 60.32315 | 24.97174 | 159 ft | 36 kts | 332° |
| 2026-04-26 13:29 | 60.32387 | 24.97009 | 164 ft | 11 kts | 267° |
| 2026-04-26 13:30 | 60.32351 | 24.96890 | 165 ft | 7 kts | 229° |
| 2026-04-26 13:30 | 60.32312 | 24.96847 | 165 ft | 7 kts | 174° |
| 2026-04-26 13:30 | 60.32256 | 24.96901 | 165 ft | 11 kts | 153° |
| 2026-04-26 13:30 | 60.32183 | 24.96975 | 166 ft | 12 kts | 153° |
| 2026-04-26 13:31 | 60.32098 | 24.97062 | 166 ft | 15 kts | 153° |
| 2026-04-26 13:31 | 60.31996 | 24.97167 | 165 ft | 18 kts | 153° |
| 2026-04-26 13:31 | 60.31874 | 24.97294 | 162 ft | 22 kts | 153° |
| 2026-04-26 13:31 | 60.31734 | 24.97438 | 159 ft | 25 kts | 152° |
| 2026-04-26 13:32 | 60.31649 | 24.97502 | 160 ft | 7 kts | 202° |
| 2026-04-26 13:32 | 60.31631 | 24.97445 | 163 ft | 4 kts | 259° |
| 2026-04-26 13:32 | 60.31653 | 24.97376 | 166 ft | 9 kts | 324° |
| 2026-04-26 13:32 | 60.31693 | 24.97309 | 166 ft | 5 kts | 282° |
| 2026-04-26 13:33 | 60.31681 | 24.97243 | 167 ft | 5 kts | 242° |
| 2026-04-26 13:33 | 60.31674 | 24.97213 | 167 ft | 0 kts | 243° |